Calmar, Canada
Current Conditions -  °F | °C
As of 2:00 PM on Friday 24 Oct 2014 (Local Time) from CYEG Reporting Station
Broken Clouds Broken Clouds  
Wind Chill: 52°   Ceiling: 26000
Heat Index: 52°   Visibility: 15mi
Dew Point: 21°   Wind: 18mph
Humidity: 30%   Direction: 310°NW
Pressure: 29.86"   Gusts: 30mph
Location:  53.25°N, 113.78°W
Report Text: CYEG 242000Z 31016G26KT 15SM FEW064 FEW100 FEW200 BKN260 11/M06 A2986 RMK CU1AC1CI1CI5 CU TR AC TR SLP130 DENSITY ALT 2500FT
Loading
Personal Weather Stations






























Interactive Weather Map
Tropical Storm Tracking
New forecast layout! Learn more

10-Day Weather Forecast

Advertisements
Track Severe Weather on mobile